Terminal Aerodrome Forecast
Issued by NWS

Home | Current Version | Previous Version | Text Only | Print | Product List | Glossary On
Versions: 1 2 3 4 5 6 7 8 9 10 11 12 13 14 15 16 17 18 19 20 21 22 23 24 25
000
FTUS42 KJAX 190555
TAFCRG
TAF
KCRG 190555Z 1906/2006 17003KT 4SM BR SCT003 SCT080 BKN120
     FM191300 19008KT P6SM SCT020 BKN250
     FM191900 22009G15KT P6SM VCTS SCT030CB BKN050 OVC200
      TEMPO 1919/1923 VRB15G25KT 3SM +TSRA BKN025CB OVC050
     FM200100 21006KT P6SM VCSH SCT025 BKN120=

USA.gov is the U.S. government's official web portal to all federal, state and local government web resources and services.